createdAt,value
2023-01-01T00:00:43.111Z,102243.31
2023-01-01T00:01:46.730Z,102243.69
2023-01-01T00:02:50.170Z,102240.19
2023-01-01T00:03:55.521Z,102246.00
2023-01-01T00:04:58.993Z,102246.28
2023-01-01T00:06:06.027Z,102244.59
2023-01-01T00:07:09.571Z,102245.03
2023-01-01T00:08:13.003Z,102245.03
2023-01-01T00:09:33.614Z,102238.13
2023-01-01T00:10:37.152Z,102245.78
2023-01-01T00:11:39.696Z,102245.28
2023-01-01T00:12:43.140Z,102239.69
2023-01-01T00:13:46.548Z,102239.00
2023-01-01T00:14:48.841Z,102245.88
2023-01-01T00:15:52.325Z,102244.69
2023-01-01T00:16:55.796Z,102241.03
2023-01-01T00:17:59.126Z,102243.84
2023-01-01T00:19:04.264Z,102244.75
2023-01-01T00:20:08.481Z,102238.50
2023-01-01T00:21:15.175Z,102240.59
2023-01-01T00:23:42.582Z,102236.88
2023-01-01T00:24:44.875Z,102232.78
2023-01-01T00:25:48.413Z,102242.06
2023-01-01T00:26:51.081Z,102235.78
2023-01-01T00:27:54.760Z,102236.44
2023-01-01T00:28:58.231Z,102236.00
2023-01-01T00:30:01.604Z,102241.34
2023-01-01T00:31:07.348Z,102244.59
2023-01-01T00:32:15.372Z,102236.91
2023-01-01T00:33:21.586Z,102239.91
2023-01-01T00:34:25.529Z,102233.41
2023-01-01T00:35:29.328Z,102237.91
2023-01-01T00:36:32.816Z,102230.53
2023-01-01T00:37:38.479Z,102225.09
2023-01-01T00:38:46.917Z,102227.09
2023-01-01T00:39:49.840Z,102227.94
2023-01-01T00:40:53.324Z,102231.41
2023-01-01T00:41:55.776Z,102219.84
2023-01-01T00:42:59.213Z,102223.59
2023-01-01T00:44:01.713Z,102222.78
2023-01-01T00:45:05.587Z,102227.41
2023-01-01T00:46:08.604Z,102226.50
2023-01-01T00:47:12.128Z,102230.66
2023-01-01T00:48:15.524Z,102227.84
2023-01-01T00:49:17.904Z,102231.41
2023-01-01T00:50:23.917Z,102231.50
2023-01-01T00:51:27.191Z,102228.16
2023-01-01T00:52:32.736Z,102231.16
2023-01-01T00:53:35.275Z,102231.03
2023-01-01T00:54:38.717Z,102235.47
2023-01-01T00:55:41.846Z,102231.16
2023-01-01T00:56:45.286Z,102234.34
2023-01-01T00:57:48.873Z,102233.69
2023-01-01T00:59:01.040Z,102222.69
2023-01-01T01:00:06.670Z,102228.00
2023-01-01T01:01:09.191Z,102226.38
2023-01-01T01:02:12.927Z,102225.38
2023-01-01T01:03:28.496Z,102233.72
2023-01-01T01:04:32.118Z,102234.91
2023-01-01T01:05:39.561Z,102221.78
2023-01-01T01:06:41.871Z,102227.63
2023-01-01T01:07:45.342Z,102231.56
2023-01-01T01:08:48.300Z,102231.34
2023-01-01T01:09:52.062Z,102232.97
2023-01-01T01:10:55.576Z,102229.53
2023-01-01T01:12:17.456Z,102233.50
2023-01-01T01:13:21.968Z,102232.06
2023-01-01T01:14:25.477Z,102232.06
2023-01-01T01:15:27.953Z,102225.13
2023-01-01T01:16:34.114Z,102233.22
2023-01-01T01:17:36.785Z,102231.13
2023-01-01T01:18:40.264Z,102228.38
2023-01-01T01:19:43.203Z,102232.56
2023-01-01T01:20:52.983Z,102226.84
2023-01-01T01:21:55.857Z,102236.25
2023-01-01T01:22:59.287Z,102242.28
2023-01-01T01:24:03.448Z,102240.41
2023-01-01T01:25:08.071Z,102246.22
2023-01-01T01:26:12.930Z,102248.47
2023-01-01T01:27:16.389Z,102245.66
2023-01-01T01:28:18.944Z,102237.22
2023-01-01T01:29:22.762Z,102235.84
2023-01-01T01:30:25.887Z,102237.47
2023-01-01T01:31:31.324Z,102232.16
2023-01-01T01:32:34.848Z,102229.13
2023-01-01T01:33:37.380Z,102234.16
2023-01-01T01:34:40.890Z,102226.72
2023-01-01T01:35:44.132Z,102221.50
2023-01-01T01:36:48.924Z,102228.34
2023-01-01T01:37:52.356Z,102229.84
2023-01-01T01:38:54.779Z,102226.53
2023-01-01T01:39:58.131Z,102230.31
2023-01-01T01:41:00.445Z,102231.72
2023-01-01T01:42:03.870Z,102233.34
2023-01-01T01:43:11.469Z,102230.16
2023-01-01T01:44:52.252Z,102231.66
2023-01-01T01:46:00.302Z,102230.28
2023-01-01T01:47:03.426Z,102229.84
2023-01-01T01:48:07.451Z,102224.78
2023-01-01T01:49:15.865Z,102224.53
2023-01-01T01:50:26.560Z,102225.41
2023-01-01T01:51:33.906Z,102236.06
2023-01-01T01:52:42.275Z,102221.09
2023-01-01T01:53:50.132Z,102222.28
2023-01-01T01:54:54.316Z,102219.66
2023-01-01T01:56:00.912Z,102221.25
2023-01-01T01:57:06.311Z,102219.25
2023-01-01T01:58:12.749Z,102224.34
2023-01-01T01:59:16.164Z,102228.44
2023-01-01T02:00:19.926Z,102229.59
2023-01-01T02:01:22.401Z,102229.34
2023-01-01T02:02:35.786Z,102234.34
2023-01-01T02:03:43.740Z,102232.41
2023-01-01T02:04:46.319Z,102233.53
2023-01-01T02:05:51.609Z,102226.91
2023-01-01T02:06:56.329Z,102226.09
2023-01-01T02:08:00.986Z,102224.72
2023-01-01T02:09:06.532Z,102227.53
2023-01-01T02:10:09.740Z,102224.44
2023-01-01T02:11:17.434Z,102225.03
2023-01-01T02:12:22.641Z,102222.31
2023-01-01T02:13:26.281Z,102218.00
2023-01-01T02:14:28.677Z,102229.44
2023-01-01T02:15:38.914Z,102226.03
2023-01-01T02:16:47.939Z,102221.97
2023-01-01T02:17:59.626Z,102228.31
2023-01-01T02:19:11.944Z,102227.09
2023-01-01T02:20:26.713Z,102225.63
2023-01-01T02:21:35.997Z,102222.03
2023-01-01T02:23:24.595Z,102221.13
2023-01-01T02:24:40.806Z,102228.97
2023-01-01T02:25:55.935Z,102229.78
2023-01-01T02:27:03.638Z,102229.34
2023-01-01T02:28:16.649Z,102229.47
2023-01-01T02:29:31.979Z,102233.34
2023-01-01T02:30:37.954Z,102225.84
2023-01-01T02:31:46.306Z,102232.53
2023-01-01T02:32:54.969Z,102232.59
2023-01-01T02:34:01.368Z,102235.50
2023-01-01T02:35:22.472Z,102236.31
2023-01-01T02:36:28.714Z,102236.41
2023-01-01T02:37:31.834Z,102236.22
2023-01-01T02:38:39.018Z,102230.34
2023-01-01T02:39:49.044Z,102232.91
2023-01-01T02:40:58.143Z,102235.09
2023-01-01T02:42:03.244Z,102233.09
2023-01-01T02:43:06.305Z,102233.72
2023-01-01T02:44:09.614Z,102235.59
2023-01-01T02:45:13.342Z,102231.78
2023-01-01T02:47:19.367Z,102229.59
2023-01-01T02:48:41.928Z,102231.78
2023-01-01T02:49:54.183Z,102225.41
2023-01-01T02:51:03.242Z,102229.63
2023-01-01T02:52:09.526Z,102234.88
2023-01-01T02:53:25.652Z,102228.25
2023-01-01T02:54:38.197Z,102233.50
2023-01-01T02:55:55.864Z,102235.25
2023-01-01T02:57:07.199Z,102234.41
2023-01-01T02:58:35.482Z,102230.59
2023-01-01T03:00:10.257Z,102232.25
2023-01-01T03:01:24.117Z,102229.50
2023-01-01T03:02:35.673Z,102231.84
2023-01-01T03:03:42.518Z,102232.47
2023-01-01T03:04:56.251Z,102237.84
2023-01-01T03:06:27.262Z,102226.09
2023-01-01T03:07:40.393Z,102234.41
2023-01-01T03:08:49.138Z,102235.13
2023-01-01T03:09:58.052Z,102234.88
2023-01-01T03:11:05.658Z,102230.22
2023-01-01T03:12:18.003Z,102234.88
2023-01-01T03:13:28.386Z,102229.22
2023-01-01T03:14:43.950Z,102228.63
2023-01-01T03:15:55.640Z,102225.34
2023-01-01T03:17:05.228Z,102226.13
2023-01-01T03:18:12.642Z,102226.91
2023-01-01T03:19:20.561Z,102225.31
2023-01-01T03:20:28.206Z,102231.31
2023-01-01T03:21:32.106Z,102231.72
2023-01-01T03:23:50.015Z,102230.22
2023-01-01T03:24:57.670Z,102229.41
2023-01-01T03:26:07.019Z,102227.16
2023-01-01T03:27:15.250Z,102230.88
2023-01-01T03:28:22.930Z,102233.03
2023-01-01T03:29:30.614Z,102234.00
2023-01-01T03:30:37.792Z,102238.69
2023-01-01T03:31:44.414Z,102228.25
2023-01-01T03:33:01.367Z,102232.88
2023-01-01T03:34:08.809Z,102239.69
2023-01-01T03:35:13.894Z,102231.22
2023-01-01T03:36:21.208Z,102232.59
2023-01-01T03:37:27.956Z,102235.41
2023-01-01T03:38:37.077Z,102227.78
2023-01-01T03:39:45.524Z,102232.81
2023-01-01T03:40:52.057Z,102232.41
2023-01-01T03:42:02.448Z,102234.06
2023-01-01T03:43:13.194Z,102232.03
2023-01-01T03:44:23.842Z,102229.03
2023-01-01T03:45:31.218Z,102235.13
2023-01-01T03:46:37.732Z,102232.25
2023-01-01T03:47:40.126Z,102231.78
2023-01-01T03:49:04.177Z,102232.16
2023-01-01T03:50:08.028Z,102230.16
2023-01-01T03:51:18.919Z,102229.41
2023-01-01T03:52:33.555Z,102237.31
2023-01-01T03:53:40.678Z,102230.13
2023-01-01T03:54:56.756Z,102229.72
2023-01-01T03:56:09.876Z,102229.75
2023-01-01T03:57:18.263Z,102231.31
2023-01-01T03:58:28.318Z,102229.72
2023-01-01T03:59:36.841Z,102222.47
2023-01-01T04:00:48.051Z,102228.94
2023-01-01T04:01:57.528Z,102224.09
2023-01-01T04:03:04.314Z,102229.88
2023-01-01T04:04:08.748Z,102228.25
2023-01-01T04:05:13.250Z,102222.59
2023-01-01T04:06:16.293Z,102224.63
2023-01-01T04:07:19.798Z,102227.69
2023-01-01T04:08:22.548Z,102234.91
2023-01-01T04:09:31.926Z,102230.94
2023-01-01T04:10:39.313Z,102234.97
2023-01-01T04:12:04.536Z,102234.16
2023-01-01T04:13:07.217Z,102232.38
2023-01-01T04:14:11.021Z,102231.13
2023-01-01T04:15:13.895Z,102231.75
2023-01-01T04:16:17.503Z,102235.78
2023-01-01T04:17:19.866Z,102236.78
2023-01-01T04:18:23.368Z,102233.75
2023-01-01T04:19:27.589Z,102236.44
2023-01-01T04:20:31.428Z,102235.81
2023-01-01T04:21:34.072Z,102230.16
2023-01-01T04:22:37.833Z,102231.94
2023-01-01T04:23:40.491Z,102233.38
2023-01-01T04:24:44.069Z,102228.34
2023-01-01T04:25:46.634Z,102235.59
2023-01-01T04:26:50.143Z,102234.56
2023-01-01T04:27:52.962Z,102229.75
2023-01-01T04:28:56.816Z,102236.97
2023-01-01T04:29:59.284Z,102238.81
2023-01-01T04:31:03.936Z,102236.41
2023-01-01T04:32:06.406Z,102239.03
2023-01-01T04:33:09.875Z,102239.78
2023-01-01T04:34:12.431Z,102237.38
2023-01-01T04:35:18.162Z,102240.22
2023-01-01T04:36:20.631Z,102235.38
2023-01-01T04:37:24.111Z,102242.25
2023-01-01T04:38:26.530Z,102242.25
2023-01-01T04:39:30.160Z,102234.16
2023-01-01T04:40:32.514Z,102240.56
2023-01-01T04:41:35.924Z,102245.16
2023-01-01T04:42:38.409Z,102246.97
2023-01-01T04:43:41.835Z,102244.78
2023-01-01T04:44:45.278Z,102247.03
2023-01-01T04:45:56.439Z,102241.81
2023-01-01T04:47:00.409Z,102246.63
2023-01-01T04:48:04.898Z,102244.16
2023-01-01T04:49:08.780Z,102247.78
2023-01-01T04:50:11.678Z,102233.75
2023-01-01T04:51:18.316Z,102245.81
2023-01-01T04:52:20.870Z,102243.34
2023-01-01T04:53:24.385Z,102242.94
2023-01-01T04:54:27.192Z,102248.78
2023-01-01T04:55:30.519Z,102242.50
2023-01-01T04:56:32.985Z,102239.69
2023-01-01T04:57:36.994Z,102243.69
2023-01-01T04:58:40.630Z,102246.56
2023-01-01T04:59:44.013Z,102235.88
2023-01-01T05:00:50.284Z,102241.69
2023-01-01T05:01:53.747Z,102242.88
2023-01-01T05:02:56.200Z,102239.31
2023-01-01T05:04:00.622Z,102245.59
2023-01-01T05:05:03.518Z,102248.97
2023-01-01T05:06:11.222Z,102248.78
2023-01-01T05:07:14.880Z,102250.56
2023-01-01T05:08:18.267Z,102247.50
2023-01-01T05:09:20.611Z,102247.34
2023-01-01T05:10:24.148Z,102254.97
2023-01-01T05:11:30.153Z,102251.75
2023-01-01T05:12:32.525Z,102255.59
2023-01-01T05:13:36.383Z,102256.66
2023-01-01T05:14:39.235Z,102257.53
2023-01-01T05:15:42.638Z,102250.25
2023-01-01T05:16:45.998Z,102245.44
2023-01-01T05:17:48.379Z,102254.72
2023-01-01T05:18:52.405Z,102251.66
2023-01-01T05:19:56.266Z,102252.47
2023-01-01T05:21:02.006Z,102244.84
2023-01-01T05:22:10.431Z,102252.50
2023-01-01T05:23:17.141Z,102254.13
2023-01-01T05:24:20.698Z,102257.38
2023-01-01T05:25:23.202Z,102259.75
2023-01-01T05:26:29.142Z,102258.97
2023-01-01T05:27:31.438Z,102262.19
2023-01-01T05:28:34.861Z,102263.16
2023-01-01T05:29:37.273Z,102260.38
2023-01-01T05:30:41.498Z,102261.56
2023-01-01T05:31:44.899Z,102257.16
2023-01-01T05:32:48.692Z,102266.81
2023-01-01T05:33:52.616Z,102258.38
2023-01-01T05:34:56.434Z,102268.84
2023-01-01T05:35:58.947Z,102263.56
2023-01-01T05:37:02.249Z,102259.53
2023-01-01T05:38:04.981Z,102258.16
2023-01-01T05:39:11.999Z,102259.53
2023-01-01T05:40:14.315Z,102262.19
2023-01-01T05:41:19.407Z,102266.22
2023-01-01T05:42:21.833Z,102268.84
2023-01-01T05:43:25.704Z,102261.16
2023-01-01T05:44:28.115Z,102262.53
2023-01-01T05:45:31.573Z,102276.44
2023-01-01T05:46:34.133Z,102264.59
2023-01-01T05:47:37.728Z,102268.38
2023-01-01T05:48:40.091Z,102267.19
2023-01-01T05:49:43.613Z,102278.47
2023-01-01T05:50:45.980Z,102281.25
2023-01-01T05:51:49.428Z,102282.09
2023-01-01T05:52:52.091Z,102283.50
2023-01-01T05:53:56.103Z,102280.06
2023-01-01T05:55:01.274Z,102281.94
2023-01-01T05:56:05.615Z,102288.56
2023-01-01T05:57:07.935Z,102289.16
2023-01-01T05:58:11.433Z,102282.50
2023-01-01T05:59:13.898Z,102285.09
2023-01-01T06:00:17.886Z,102280.84
2023-01-01T06:01:22.481Z,102279.59
2023-01-01T06:02:25.959Z,102286.84
2023-01-01T06:03:29.498Z,102286.63
2023-01-01T06:04:32.780Z,102282.97
2023-01-01T06:05:35.661Z,102284.16
2023-01-01T06:06:39.021Z,102289.59
2023-01-01T06:07:48.001Z,102287.78
2023-01-01T06:08:52.713Z,102285.53
2023-01-01T06:09:55.078Z,102284.47
2023-01-01T06:11:02.158Z,102288.50
2023-01-01T06:12:05.113Z,102284.06
2023-01-01T06:13:13.088Z,102283.25
2023-01-01T06:14:15.782Z,102285.47
2023-01-01T06:15:19.269Z,102284.44
2023-01-01T06:16:22.053Z,102287.06
2023-01-01T06:17:25.571Z,102292.16
2023-01-01T06:18:31.347Z,102289.28
2023-01-01T06:19:34.766Z,102293.53
2023-01-01T06:20:37.158Z,102293.34
2023-01-01T06:21:40.591Z,102291.72
2023-01-01T06:22:43.236Z,102294.00
2023-01-01T06:23:47.404Z,102287.34
2023-01-01T06:24:49.831Z,102286.97
2023-01-01T06:25:53.369Z,102276.66
2023-01-01T06:26:57.293Z,102280.13
2023-01-01T06:28:00.851Z,102281.28
2023-01-01T06:29:04.908Z,102277.84
2023-01-01T06:30:08.799Z,102277.28
2023-01-01T06:31:14.532Z,102277.91
2023-01-01T06:32:17.195Z,102277.72
2023-01-01T06:33:20.709Z,102282.72
2023-01-01T06:34:23.084Z,102287.25
2023-01-01T06:35:26.448Z,102282.81
2023-01-01T06:36:28.911Z,102287.66
2023-01-01T06:37:32.291Z,102287.44
2023-01-01T06:38:37.284Z,102284.66
2023-01-01T06:39:40.901Z,102291.88
2023-01-01T06:40:43.552Z,102292.00
2023-01-01T06:41:48.085Z,102300.88
2023-01-01T06:42:52.216Z,102293.59
2023-01-01T06:43:57.365Z,102291.97
2023-01-01T06:44:59.810Z,102292.97
2023-01-01T06:46:05.001Z,102289.91
2023-01-01T06:47:09.124Z,102284.66
2023-01-01T06:48:11.446Z,102289.13
2023-01-01T06:49:14.857Z,102285.09
2023-01-01T06:50:17.387Z,102287.59
2023-01-01T06:51:22.776Z,102293.59
2023-01-01T06:52:26.043Z,102294.88
2023-01-01T06:53:28.361Z,102291.25
2023-01-01T06:54:32.153Z,102294.25
2023-01-01T06:55:35.770Z,102301.31
2023-01-01T06:56:39.728Z,102300.50
2023-01-01T06:57:42.262Z,102304.69
2023-01-01T06:58:47.200Z,102303.13
2023-01-01T06:59:50.662Z,102305.56
2023-01-01T07:00:52.946Z,102303.75
2023-01-01T07:01:57.019Z,102313.56
2023-01-01T07:02:59.517Z,102305.94
2023-01-01T07:04:04.809Z,102307.38
2023-01-01T07:05:07.923Z,102305.56
2023-01-01T07:06:12.115Z,102313.41
2023-01-01T07:07:15.542Z,102308.75
2023-01-01T07:08:17.892Z,102313.53
2023-01-01T07:09:21.261Z,102311.31
2023-01-01T07:10:23.918Z,102315.00
2023-01-01T07:11:27.702Z,102311.78
2023-01-01T07:12:30.040Z,102318.38
2023-01-01T07:13:34.044Z,102314.06
2023-01-01T07:14:38.838Z,102319.28
2023-01-01T07:15:41.628Z,102316.72
2023-01-01T07:16:45.169Z,102312.94
2023-01-01T07:17:47.635Z,102318.16
2023-01-01T07:18:51.396Z,102315.44
2023-01-01T07:19:53.822Z,102316.03
2023-01-01T07:20:59.928Z,102318.47
2023-01-01T07:22:03.461Z,102317.28
2023-01-01T07:23:05.829Z,102318.66
2023-01-01T07:24:13.086Z,102303.69
2023-01-01T07:25:16.375Z,102313.22
2023-01-01T07:26:20.077Z,102311.78
2023-01-01T07:27:23.467Z,102312.22
2023-01-01T07:28:26.516Z,102315.84
2023-01-01T07:29:30.042Z,102319.38
2023-01-01T07:30:33.988Z,102317.75
2023-01-01T07:31:38.335Z,102322.91
2023-01-01T07:32:41.059Z,102316.22
2023-01-01T07:33:44.564Z,102315.81
2023-01-01T07:34:50.634Z,102327.91
2023-01-01T07:35:54.248Z,102320.97
2023-01-01T07:36:57.724Z,102322.16
2023-01-01T07:38:00.033Z,102318.06
2023-01-01T07:39:03.386Z,102326.91
2023-01-01T07:40:07.202Z,102328.47
2023-01-01T07:41:10.691Z,102330.81
2023-01-01T07:42:14.145Z,102330.72
2023-01-01T07:43:16.384Z,102329.47
2023-01-01T07:44:19.701Z,102323.13
2023-01-01T07:45:21.951Z,102327.38
2023-01-01T07:46:27.167Z,102321.59
2023-01-01T07:47:29.587Z,102315.09
2023-01-01T07:48:39.538Z,102329.38
2023-01-01T07:49:42.599Z,102325.22
2023-01-01T07:50:46.423Z,102324.31
2023-01-01T07:51:50.039Z,102327.34
2023-01-01T07:52:52.837Z,102325.22
2023-01-01T07:54:00.610Z,102319.22
2023-01-01T07:55:07.065Z,102321.97
2023-01-01T07:56:10.854Z,102318.31
2023-01-01T07:57:14.250Z,102319.03
2023-01-01T07:58:16.894Z,102324.66
2023-01-01T07:59:20.665Z,102320.84
2023-01-01T08:00:23.713Z,102319.59
2023-01-01T08:01:28.755Z,102321.91
2023-01-01T08:02:32.542Z,102325.84
2023-01-01T08:03:35.078Z,102323.09
2023-01-01T08:04:38.433Z,102333.25
2023-01-01T08:05:41.092Z,102327.34
2023-01-01T08:06:44.628Z,102330.16
2023-01-01T08:07:47.363Z,102330.66
2023-01-01T08:08:50.721Z,102331.75
2023-01-01T08:09:53.084Z,102331.53
2023-01-01T08:11:03.934Z,102329.47
2023-01-01T08:12:06.947Z,102329.31
2023-01-01T08:13:10.811Z,102332.34
2023-01-01T08:14:15.026Z,102334.50
2023-01-01T08:15:17.622Z,102330.34
2023-01-01T08:16:21.011Z,102335.41
2023-01-01T08:17:24.877Z,102336.16
2023-01-01T08:18:28.304Z,102339.97
2023-01-01T08:19:31.886Z,102339.47
2023-01-01T08:20:34.759Z,102334.16
2023-01-01T08:21:38.522Z,102331.44
2023-01-01T08:22:40.925Z,102335.94
2023-01-01T08:23:44.230Z,102338.94
2023-01-01T08:24:46.588Z,102336.97
2023-01-01T08:25:49.981Z,102342.72
2023-01-01T08:26:52.514Z,102345.91
2023-01-01T08:27:55.849Z,102340.72
2023-01-01T08:28:58.707Z,102338.28
2023-01-01T08:30:02.057Z,102335.47
2023-01-01T08:31:05.764Z,102328.72
2023-01-01T08:32:08.092Z,102339.91
2023-01-01T08:33:13.226Z,102333.06
2023-01-01T08:34:16.448Z,102332.25
2023-01-01T08:35:19.106Z,102339.72
2023-01-01T08:36:22.679Z,102338.94
2023-01-01T08:37:25.263Z,102338.47
2023-01-01T08:38:28.617Z,102348.94
2023-01-01T08:39:31.484Z,102341.94
2023-01-01T08:40:34.912Z,102350.19
2023-01-01T08:41:38.285Z,102349.00
2023-01-01T08:42:40.830Z,102354.47
2023-01-01T08:43:44.151Z,102352.53
2023-01-01T08:44:47.875Z,102359.78
2023-01-01T08:45:51.432Z,102358.06
2023-01-01T08:46:54.127Z,102362.31
2023-01-01T08:47:57.656Z,102355.66
2023-01-01T08:49:02.573Z,102367.44
2023-01-01T08:50:05.591Z,102361.81
2023-01-01T08:51:08.964Z,102360.59
2023-01-01T08:52:11.260Z,102373.13
2023-01-01T08:53:14.554Z,102374.72
2023-01-01T08:54:16.802Z,102376.19
2023-01-01T08:55:20.724Z,102377.38
2023-01-01T08:56:24.277Z,102375.50
2023-01-01T08:57:26.743Z,102372.44
2023-01-01T08:58:30.325Z,102373.59
2023-01-01T08:59:32.971Z,102377.56
2023-01-01T09:00:37.510Z,102377.03
2023-01-01T09:01:39.986Z,102383.84
2023-01-01T09:02:43.506Z,102378.66
2023-01-01T09:03:45.956Z,102374.22
2023-01-01T09:04:51.537Z,102365.56
2023-01-01T09:05:54.459Z,102369.66
2023-01-01T09:06:58.274Z,102372.06
2023-01-01T09:08:01.631Z,102368.09
2023-01-01T09:09:04.243Z,102377.66
2023-01-01T09:10:08.758Z,102374.06
2023-01-01T09:11:22.954Z,102384.06
2023-01-01T09:12:26.440Z,102388.91
2023-01-01T09:13:30.555Z,102376.41
2023-01-01T09:14:33.753Z,102378.72
2023-01-01T09:15:37.110Z,102389.25
2023-01-01T09:16:44.168Z,102393.50
2023-01-01T09:17:48.058Z,102392.03
2023-01-01T09:18:50.425Z,102396.44
2023-01-01T09:19:55.628Z,102394.09
2023-01-01T09:20:59.103Z,102396.56
2023-01-01T09:22:01.689Z,102401.59
2023-01-01T09:23:06.243Z,102387.44
2023-01-01T09:24:10.065Z,102396.53
2023-01-01T09:25:13.427Z,102398.31
2023-01-01T09:26:16.815Z,102396.91
2023-01-01T09:27:20.707Z,102393.41
2023-01-01T09:28:25.867Z,102399.53
2023-01-01T09:29:29.663Z,102400.06
2023-01-01T09:30:33.518Z,102401.97
2023-01-01T09:31:37.122Z,102403.97
2023-01-01T09:32:41.059Z,102403.41
2023-01-01T09:33:44.507Z,102401.59
2023-01-01T09:34:52.321Z,102398.44
2023-01-01T09:36:12.395Z,102404.53
2023-01-01T09:37:16.069Z,102400.31
2023-01-01T09:38:18.493Z,102398.84
2023-01-01T09:39:21.954Z,102399.56
2023-01-01T09:40:32.178Z,102395.03
2023-01-01T09:41:47.771Z,102405.16
2023-01-01T09:43:01.476Z,102400.47
2023-01-01T09:44:11.025Z,102406.47
2023-01-01T09:45:24.659Z,102404.31
2023-01-01T09:46:31.889Z,102396.28
2023-01-01T09:47:40.979Z,102391.22
2023-01-01T09:48:53.360Z,102394.75
2023-01-01T09:50:01.482Z,102400.72
2023-01-01T09:51:09.119Z,102402.41
2023-01-01T09:52:14.613Z,102406.94
2023-01-01T09:53:22.800Z,102411.50
2023-01-01T09:54:29.727Z,102410.84
2023-01-01T09:55:45.074Z,102398.31
2023-01-01T09:56:50.594Z,102401.38
2023-01-01T09:57:54.763Z,102396.47
2023-01-01T09:58:59.449Z,102398.91
2023-01-01T10:00:02.938Z,102402.06
2023-01-01T10:01:17.511Z,102402.72
2023-01-01T10:02:49.819Z,102403.59
2023-01-01T10:04:01.456Z,102398.63
2023-01-01T10:05:14.043Z,102398.75
2023-01-01T10:06:24.001Z,102399.72
2023-01-01T10:07:34.560Z,102395.22
2023-01-01T10:09:00.695Z,102400.81
2023-01-01T10:10:11.186Z,102402.06
2023-01-01T10:11:24.439Z,102401.34
2023-01-01T10:12:38.016Z,102401.91
2023-01-01T10:13:44.672Z,102398.47
2023-01-01T10:14:59.651Z,102398.50
2023-01-01T10:16:10.981Z,102400.56
2023-01-01T10:17:19.706Z,102396.66
2023-01-01T10:18:27.143Z,102391.38
2023-01-01T10:19:36.869Z,102395.81
2023-01-01T10:20:43.850Z,102388.06
2023-01-01T10:21:51.539Z,102391.94
2023-01-01T10:22:59.636Z,102383.38
2023-01-01T10:24:07.246Z,102387.81
2023-01-01T10:25:19.407Z,102384.69
2023-01-01T10:26:27.351Z,102380.97
2023-01-01T10:27:38.113Z,102375.50
2023-01-01T10:28:48.498Z,102376.53
2023-01-01T10:29:55.579Z,102380.31
2023-01-01T10:31:16.572Z,102377.69
2023-01-01T10:32:22.564Z,102368.50
2023-01-01T10:33:27.011Z,102370.66
2023-01-01T10:34:32.345Z,102378.34
2023-01-01T10:35:41.137Z,102372.28
2023-01-01T10:36:45.075Z,102377.94
2023-01-01T10:37:50.156Z,102366.59
2023-01-01T10:38:53.701Z,102375.75
2023-01-01T10:39:56.003Z,102373.25
2023-01-01T10:41:12.133Z,102373.50
2023-01-01T10:42:18.810Z,102363.00
2023-01-01T10:43:22.134Z,102372.06
2023-01-01T10:44:31.640Z,102367.88
2023-01-01T10:45:37.160Z,102365.66
2023-01-01T10:46:45.583Z,102366.25
2023-01-01T10:48:19.954Z,102356.47
2023-01-01T10:49:23.318Z,102362.44
2023-01-01T10:50:43.449Z,102355.31
2023-01-01T10:51:49.597Z,102353.16
2023-01-01T10:52:57.590Z,102359.72
2023-01-01T10:54:01.161Z,102358.22
2023-01-01T10:55:04.971Z,102348.50
2023-01-01T10:56:12.219Z,102353.88
2023-01-01T10:57:17.890Z,102352.59
2023-01-01T10:58:28.423Z,102351.34
2023-01-01T10:59:37.962Z,102350.44
2023-01-01T11:00:41.523Z,102349.38
2023-01-01T11:01:43.866Z,102349.03
2023-01-01T11:02:47.484Z,102347.53
2023-01-01T11:03:59.977Z,102340.00
2023-01-01T11:05:22.008Z,102335.75
2023-01-01T11:06:28.080Z,102338.19
2023-01-01T11:07:35.219Z,102330.84
2023-01-01T11:08:42.235Z,102337.59
2023-01-01T11:10:02.675Z,102338.88
2023-01-01T11:11:07.374Z,102335.56
2023-01-01T11:12:54.597Z,102328.91
2023-01-01T11:13:44.064Z,102333.00
2023-01-01T11:14:53.378Z,102329.69
2023-01-01T11:15:58.100Z,102331.88
2023-01-01T11:17:02.062Z,102323.63
2023-01-01T11:18:08.262Z,102330.03
2023-01-01T11:19:24.364Z,102325.81
2023-01-01T11:20:26.790Z,102320.84
2023-01-01T11:21:30.430Z,102317.84
2023-01-01T11:22:42.596Z,102326.34
2023-01-01T11:23:46.374Z,102322.09
2023-01-01T11:25:01.365Z,102321.88
2023-01-01T11:26:08.038Z,102322.00
2023-01-01T11:27:20.659Z,102318.06
2023-01-01T11:28:23.018Z,102313.44
2023-01-01T11:29:29.205Z,102315.69
2023-01-01T11:30:31.748Z,102307.78
2023-01-01T11:31:38.804Z,102312.44
2023-01-01T11:32:41.681Z,102308.13
2023-01-01T11:33:49.220Z,102304.72
2023-01-01T11:34:59.917Z,102305.00
2023-01-01T11:36:02.947Z,102307.63
2023-01-01T11:37:23.768Z,102309.41
2023-01-01T11:38:30.220Z,102307.19
2023-01-01T11:39:37.692Z,102307.56
2023-01-01T11:40:46.485Z,102303.31
2023-01-01T11:41:53.114Z,102295.78
2023-01-01T11:43:00.860Z,102305.56
2023-01-01T11:44:03.526Z,102285.13
2023-01-01T11:45:18.311Z,102300.22
2023-01-01T11:46:26.289Z,102304.00
2023-01-01T11:47:33.379Z,102305.59
2023-01-01T11:48:38.346Z,102299.03
2023-01-01T11:49:40.815Z,102286.44
2023-01-01T11:50:54.367Z,102293.53
2023-01-01T11:51:57.838Z,102293.75
2023-01-01T11:53:19.649Z,102296.66
2023-01-01T11:54:26.848Z,102285.81
2023-01-01T11:55:42.682Z,102290.03
2023-01-01T11:56:45.813Z,102286.00
2023-01-01T11:57:58.641Z,102285.75
2023-01-01T11:59:10.604Z,102290.63
2023-01-01T12:00:17.180Z,102286.38
2023-01-01T12:01:29.547Z,102277.56
2023-01-01T12:02:38.215Z,102283.03
2023-01-01T12:03:46.358Z,102277.03
2023-01-01T12:04:55.393Z,102273.19
2023-01-01T12:06:05.331Z,102271.22
2023-01-01T12:07:11.458Z,102276.34
2023-01-01T12:08:20.439Z,102273.81
2023-01-01T12:09:25.340Z,102272.78
2023-01-01T12:10:32.752Z,102272.81
2023-01-01T12:11:44.390Z,102269.66
2023-01-01T12:12:52.077Z,102263.84
2023-01-01T12:13:58.973Z,102258.72
2023-01-01T12:15:05.343Z,102264.16
2023-01-01T12:16:14.037Z,102257.00
2023-01-01T12:17:22.911Z,102263.31
2023-01-01T12:18:31.748Z,102257.16
2023-01-01T12:19:41.499Z,102259.72
2023-01-01T12:20:50.819Z,102256.75
2023-01-01T12:21:58.805Z,102265.78
2023-01-01T12:23:03.469Z,102257.75
2023-01-01T12:24:12.359Z,102245.97
2023-01-01T12:25:20.085Z,102258.38
2023-01-01T12:26:25.787Z,102253.88
2023-01-01T12:27:49.141Z,102245.91
2023-01-01T12:29:27.620Z,102250.13
2023-01-01T12:30:36.815Z,102246.53
2023-01-01T12:31:51.795Z,102247.50
2023-01-01T12:33:36.142Z,102241.41
2023-01-01T12:34:49.255Z,102240.28
2023-01-01T12:36:17.284Z,102247.47
2023-01-01T12:37:35.363Z,102240.41
2023-01-01T12:39:10.864Z,102238.16
2023-01-01T12:40:40.641Z,102238.63
2023-01-01T12:41:54.610Z,102232.88